sensor_id;sensor_type;location;lat;lon;timestamp;pressure;altitude;pressure_sealevel;temperature;humidity
78741;BME280;68062;48.726;9.370;2024-03-08T00:00:16;98653.38;;;1.77;100.00
78741;BME280;68062;48.726;9.370;2024-03-08T00:02:47;98654.16;;;1.75;100.00
78741;BME280;68062;48.726;9.370;2024-03-08T00:05:18;98639.31;;;1.60;100.00
78741;BME280;68062;48.726;9.370;2024-03-08T00:07:46;98646.09;;;1.61;100.00
78741;BME280;68062;48.726;9.370;2024-03-08T00:10:14;98642.44;;;1.53;100.00
78741;BME280;68062;48.726;9.370;2024-03-08T00:12:44;98638.09;;;1.49;100.00
78741;BME280;68062;48.726;9.370;2024-03-08T00:15:16;98627.66;;;1.39;100.00
78741;BME280;68062;48.726;9.370;2024-03-08T00:17:46;98632.56;;;1.60;100.00
78741;BME280;68062;48.726;9.370;2024-03-08T00:20:15;98635.03;;;1.59;100.00
78741;BME280;68062;48.726;9.370;2024-03-08T00:22:45;98632.50;;;1.59;100.00
78741;BME280;68062;48.726;9.370;2024-03-08T00:25:14;98636.13;;;1.66;100.00
78741;BME280;68062;48.726;9.370;2024-03-08T00:27:42;98631.16;;;1.69;100.00
78741;BME280;68062;48.726;9.370;2024-03-08T00:30:11;98632.97;;;1.73;100.00
78741;BME280;68062;48.726;9.370;2024-03-08T00:32:42;98616.97;;;1.75;100.00
78741;BME280;68062;48.726;9.370;2024-03-08T00:35:10;98622.28;;;1.83;100.00
78741;BME280;68062;48.726;9.370;2024-03-08T00:37:39;98618.06;;;1.84;100.00
78741;BME280;68062;48.726;9.370;2024-03-08T00:40:09;98613.78;;;1.81;100.00
78741;BME280;68062;48.726;9.370;2024-03-08T00:42:38;98616.41;;;1.84;100.00
78741;BME280;68062;48.726;9.370;2024-03-08T00:45:07;98610.19;;;1.74;100.00
78741;BME280;68062;48.726;9.370;2024-03-08T00:47:37;98617.59;;;1.68;100.00
78741;BME280;68062;48.726;9.370;2024-03-08T00:50:07;98612.53;;;1.68;100.00
78741;BME280;68062;48.726;9.370;2024-03-08T00:52:36;98602.44;;;1.70;100.00
78741;BME280;68062;48.726;9.370;2024-03-08T00:55:04;98612.53;;;1.68;100.00
78741;BME280;68062;48.726;9.370;2024-03-08T00:57:32;98615.03;;;1.67;100.00
78741;BME280;68062;48.726;9.370;2024-03-08T01:00:03;98614.66;;;1.56;100.00
78741;BME280;68062;48.726;9.370;2024-03-08T01:02:32;98611.63;;;1.40;100.00
78741;BME280;68062;48.726;9.370;2024-03-08T01:05:02;98604.91;;;1.41;100.00
78741;BME280;68062;48.726;9.370;2024-03-08T01:07:35;98599.78;;;1.39;100.00
78741;BME280;68062;48.726;9.370;2024-03-08T01:10:03;98596.88;;;1.27;100.00
78741;BME280;68062;48.726;9.370;2024-03-08T01:12:36;98595.66;;;1.15;100.00
78741;BME280;68062;48.726;9.370;2024-03-08T01:15:05;98601.38;;;1.10;100.00
78741;BME280;68062;48.726;9.370;2024-03-08T01:17:33;98586.75;;;1.01;100.00
78741;BME280;68062;48.726;9.370;2024-03-08T01:20:02;98588.25;;;0.96;100.00
78741;BME280;68062;48.726;9.370;2024-03-08T01:22:30;98586.47;;;0.93;100.00
78741;BME280;68062;48.726;9.370;2024-03-08T01:24:59;98578.72;;;0.88;100.00
78741;BME280;68062;48.726;9.370;2024-03-08T01:27:27;98580.28;;;0.85;100.00
78741;BME280;68062;48.726;9.370;2024-03-08T01:29:55;98575.81;;;0.78;100.00
78741;BME280;68062;48.726;9.370;2024-03-08T01:32:23;98577.44;;;0.76;100.00
78741;BME280;68062;48.726;9.370;2024-03-08T01:34:51;98575.50;;;0.68;100.00
78741;BME280;68062;48.726;9.370;2024-03-08T01:37:19;98573.28;;;0.78;100.00
78741;BME280;68062;48.726;9.370;2024-03-08T01:39:47;98568.91;;;0.72;100.00
78741;BME280;68062;48.726;9.370;2024-03-08T01:42:17;98563.22;;;0.79;100.00
78741;BME280;68062;48.726;9.370;2024-03-08T01:44:45;98564.03;;;0.78;100.00
78741;BME280;68062;48.726;9.370;2024-03-08T01:47:13;98560.63;;;0.78;100.00
78741;BME280;68062;48.726;9.370;2024-03-08T01:49:41;98555.78;;;0.84;100.00
78741;BME280;68062;48.726;9.370;2024-03-08T01:52:09;98545.31;;;0.73;100.00
78741;BME280;68062;48.726;9.370;2024-03-08T01:54:38;98547.03;;;0.74;100.00
78741;BME280;68062;48.726;9.370;2024-03-08T01:57:07;98538.56;;;0.73;100.00
78741;BME280;68062;48.726;9.370;2024-03-08T01:59:37;98540.94;;;0.69;100.00
78741;BME280;68062;48.726;9.370;2024-03-08T02:02:06;98533.28;;;0.67;100.00
78741;BME280;68062;48.726;9.370;2024-03-08T02:04:36;98529.72;;;0.62;100.00
78741;BME280;68062;48.726;9.370;2024-03-08T02:07:05;98521.91;;;0.80;100.00
78741;BME280;68062;48.726;9.370;2024-03-08T02:09:36;98524.69;;;0.88;100.00
78741;BME280;68062;48.726;9.370;2024-03-08T02:12:05;98520.84;;;0.99;100.00
78741;BME280;68062;48.726;9.370;2024-03-08T02:14:37;98514.13;;;1.00;100.00
78741;BME280;68062;48.726;9.370;2024-03-08T02:17:07;98511.69;;;1.03;100.00
78741;BME280;68062;48.726;9.370;2024-03-08T02:19:35;98512.69;;;1.08;100.00
78741;BME280;68062;48.726;9.370;2024-03-08T02:22:05;98502.78;;;1.16;100.00
78741;BME280;68062;48.726;9.370;2024-03-08T02:24:33;98512.81;;;1.13;100.00
78741;BME280;68062;48.726;9.370;2024-03-08T02:27:02;98504.31;;;1.11;100.00
78741;BME280;68062;48.726;9.370;2024-03-08T02:29:31;98501.75;;;1.09;100.00
78741;BME280;68062;48.726;9.370;2024-03-08T02:32:00;98497.53;;;1.10;100.00
78741;BME280;68062;48.726;9.370;2024-03-08T02:34:29;98499.97;;;1.07;100.00
78741;BME280;68062;48.726;9.370;2024-03-08T02:36:58;98497.50;;;1.08;100.00
78741;BME280;68062;48.726;9.370;2024-03-08T02:39:28;98497.41;;;1.05;100.00
78741;BME280;68062;48.726;9.370;2024-03-08T02:41:56;98494.19;;;1.11;100.00
78741;BME280;68062;48.726;9.370;2024-03-08T02:44:24;98485.13;;;1.17;100.00
78741;BME280;68062;48.726;9.370;2024-03-08T02:46:52;98497.72;;;1.16;100.00
78741;BME280;68062;48.726;9.370;2024-03-08T02:49:21;98498.69;;;1.20;100.00
78741;BME280;68062;48.726;9.370;2024-03-08T02:51:49;98497.78;;;1.17;100.00
78741;BME280;68062;48.726;9.370;2024-03-08T02:54:17;98493.72;;;1.23;100.00
78741;BME280;68062;48.726;9.370;2024-03-08T02:56:47;98492.94;;;1.25;100.00
78741;BME280;68062;48.726;9.370;2024-03-08T02:59:17;98488.38;;;1.13;100.00
78741;BME280;68062;48.726;9.370;2024-03-08T03:01:45;98484.91;;;1.11;100.00
78741;BME280;68062;48.726;9.370;2024-03-08T03:04:13;98484.72;;;1.05;100.00
78741;BME280;68062;48.726;9.370;2024-03-08T03:06:41;98481.28;;;1.03;100.00
78741;BME280;68062;48.726;9.370;2024-03-08T03:09:09;98473.31;;;0.92;100.00
78741;BME280;68062;48.726;9.370;2024-03-08T03:11:37;98467.41;;;0.92;100.00
78741;BME280;68062;48.726;9.370;2024-03-08T03:14:06;98460.25;;;0.78;100.00
78741;BME280;68062;48.726;9.370;2024-03-08T03:16:35;98472.31;;;0.87;100.00
78741;BME280;68062;48.726;9.370;2024-03-08T03:19:03;98474.81;;;0.85;100.00
78741;BME280;68062;48.726;9.370;2024-03-08T03:21:32;98472.22;;;0.84;100.00
78741;BME280;68062;48.726;9.370;2024-03-08T03:24:03;98470.41;;;0.80;100.00
78741;BME280;68062;48.726;9.370;2024-03-08T03:26:31;98469.66;;;0.82;100.00
78741;BME280;68062;48.726;9.370;2024-03-08T03:28:59;98468.59;;;0.76;100.00
78741;BME280;68062;48.726;9.370;2024-03-08T03:31:31;98468.38;;;0.69;100.00
78741;BME280;68062;48.726;9.370;2024-03-08T03:33:59;98458.94;;;0.64;100.00
78741;BME280;68062;48.726;9.370;2024-03-08T03:36:29;98456.59;;;0.70;100.00
78741;BME280;68062;48.726;9.370;2024-03-08T03:38:58;98454.06;;;0.70;100.00
78741;BME280;68062;48.726;9.370;2024-03-08T03:41:37;98449.44;;;0.58;100.00
78741;BME280;68062;48.726;9.370;2024-03-08T03:44:05;98453.78;;;0.61;100.00
78741;BME280;68062;48.726;9.370;2024-03-08T03:46:35;98450.25;;;0.57;100.00
78741;BME280;68062;48.726;9.370;2024-03-08T03:49:03;98446.72;;;0.52;100.00
78741;BME280;68062;48.726;9.370;2024-03-08T03:51:31;98444.28;;;0.55;100.00
78741;BME280;68062;48.726;9.370;2024-03-08T03:53:59;98441.91;;;0.60;100.00
78741;BME280;68062;48.726;9.370;2024-03-08T03:56:27;98443.38;;;0.53;100.00
78741;BME280;68062;48.726;9.370;2024-03-08T03:58:55;98439.50;;;0.63;100.00
78741;BME280;68062;48.726;9.370;2024-03-08T04:01:23;98442.78;;;0.60;100.00
78741;BME280;68062;48.726;9.370;2024-03-08T04:03:53;98440.50;;;0.68;100.00
78741;BME280;68062;48.726;9.370;2024-03-08T04:06:21;98437.97;;;0.68;100.00
78741;BME280;68062;48.726;9.370;2024-03-08T04:08:49;98438.81;;;0.68;100.00
78741;BME280;68062;48.726;9.370;2024-03-08T04:11:17;98440.72;;;0.76;100.00
78741;BME280;68062;48.726;9.370;2024-03-08T04:13:45;98441.66;;;0.78;100.00
78741;BME280;68062;48.726;9.370;2024-03-08T04:16:13;98445.09;;;0.80;100.00
78741;BME280;68062;48.726;9.370;2024-03-08T04:18:42;98442.16;;;0.67;100.00
78741;BME280;68062;48.726;9.370;2024-03-08T04:21:11;98439.63;;;0.67;100.00
78741;BME280;68062;48.726;9.370;2024-03-08T04:23:40;98440.53;;;0.69;100.00
78741;BME280;68062;48.726;9.370;2024-03-08T04:26:08;98433.53;;;0.61;100.00
78741;BME280;68062;48.726;9.370;2024-03-08T04:28:36;98435.06;;;0.57;100.00
78741;BME280;68062;48.726;9.370;2024-03-08T04:31:06;98427.38;;;0.54;100.00
78741;BME280;68062;48.726;9.370;2024-03-08T04:33:34;98424.00;;;0.53;100.00
78741;BME280;68062;48.726;9.370;2024-03-08T04:36:02;98424.66;;;0.48;100.00
78741;BME280;68062;48.726;9.370;2024-03-08T04:38:32;98411.66;;;0.63;100.00
78741;BME280;68062;48.726;9.370;2024-03-08T04:41:00;98420.69;;;0.56;100.00
78741;BME280;68062;48.726;9.370;2024-03-08T04:43:28;98420.66;;;0.54;100.00
78741;BME280;68062;48.726;9.370;2024-03-08T04:45:57;98421.22;;;0.46;100.00
78741;BME280;68062;48.726;9.370;2024-03-08T04:48:25;98422.78;;;0.42;100.00
78741;BME280;68062;48.726;9.370;2024-03-08T04:50:53;98420.00;;;0.34;100.00
78741;BME280;68062;48.726;9.370;2024-03-08T04:53:22;98420.81;;;0.33;100.00
78741;BME280;68062;48.726;9.370;2024-03-08T04:55:52;98418.94;;;0.27;100.00
78741;BME280;68062;48.726;9.370;2024-03-08T04:58:20;98416.22;;;0.21;100.00
78741;BME280;68062;48.726;9.370;2024-03-08T05:00:48;98416.00;;;0.15;100.00
78741;BME280;68062;48.726;9.370;2024-03-08T05:03:16;98410.94;;;0.15;100.00
78741;BME280;68062;48.726;9.370;2024-03-08T05:05:44;98415.09;;;0.13;100.00
78741;BME280;68062;48.726;9.370;2024-03-08T05:08:12;98416.53;;;0.06;100.00
78741;BME280;68062;48.726;9.370;2024-03-08T05:10:40;98398.88;;;0.08;100.00
78741;BME280;68062;48.726;9.370;2024-03-08T05:13:10;98409.63;;;0.02;100.00
78741;BME280;68062;48.726;9.370;2024-03-08T05:15:39;98410.41;;;-0.01;100.00
78741;BME280;68062;48.726;9.370;2024-03-08T05:18:07;98401.34;;;0.06;100.00
78741;BME280;68062;48.726;9.370;2024-03-08T05:20:38;98400.72;;;0.12;100.00
78741;BME280;68062;48.726;9.370;2024-03-08T05:23:07;98403.84;;;0.05;100.00
78741;BME280;68062;48.726;9.370;2024-03-08T05:25:36;98407.19;;;0.04;100.00
78741;BME280;68062;48.726;9.370;2024-03-08T05:28:04;98402.72;;;-0.04;100.00
78741;BME280;68062;48.726;9.370;2024-03-08T05:30:34;98404.94;;;-0.13;100.00
78741;BME280;68062;48.726;9.370;2024-03-08T05:33:03;98400.88;;;-0.08;100.00
78741;BME280;68062;48.726;9.370;2024-03-08T05:35:32;98402.41;;;-0.13;100.00
78741;BME280;68062;48.726;9.370;2024-03-08T05:38:00;98398.25;;;-0.11;100.00
78741;BME280;68062;48.726;9.370;2024-03-08T05:40:28;98403.91;;;-0.18;100.00
78741;BME280;68062;48.726;9.370;2024-03-08T05:42:58;98381.22;;;-0.17;100.00
78741;BME280;68062;48.726;9.370;2024-03-08T05:45:27;98393.00;;;-0.17;100.00
78741;BME280;68062;48.726;9.370;2024-03-08T05:47:56;98401.56;;;-0.13;100.00
78741;BME280;68062;48.726;9.370;2024-03-08T05:50:24;98387.81;;;-0.20;100.00
78741;BME280;68062;48.726;9.370;2024-03-08T05:52:54;98393.06;;;-0.16;100.00
78741;BME280;68062;48.726;9.370;2024-03-08T05:55:22;98392.28;;;-0.13;100.00
78741;BME280;68062;48.726;9.370;2024-03-08T05:57:51;98392.47;;;-0.08;100.00
78741;BME280;68062;48.726;9.370;2024-03-08T06:00:20;98393.28;;;-0.09;100.00
78741;BME280;68062;48.726;9.370;2024-03-08T06:02:49;98391.59;;;-0.09;100.00
78741;BME280;68062;48.726;9.370;2024-03-08T06:05:20;98390.69;;;-0.11;100.00
78741;BME280;68062;48.726;9.370;2024-03-08T06:07:50;98392.50;;;-0.07;100.00
78741;BME280;68062;48.726;9.370;2024-03-08T06:10:20;98389.94;;;-0.08;100.00
78741;BME280;68062;48.726;9.370;2024-03-08T06:12:48;98390.84;;;-0.06;100.00
78741;BME280;68062;48.726;9.370;2024-03-08T06:15:17;98396.28;;;0.06;100.00
78741;BME280;68062;48.726;9.370;2024-03-08T06:17:48;98400.53;;;0.07;100.00
78741;BME280;68062;48.726;9.370;2024-03-08T06:20:16;98393.16;;;0.13;100.00
78741;BME280;68062;48.726;9.370;2024-03-08T06:22:45;98398.75;;;0.29;100.00
78741;BME280;68062;48.726;9.370;2024-03-08T06:25:13;98399.16;;;0.41;100.00
78741;BME280;68062;48.726;9.370;2024-03-08T06:27:42;98399.53;;;0.54;100.00
78741;BME280;68062;48.726;9.370;2024-03-08T06:30:11;98405.16;;;0.71;100.00
78741;BME280;68062;48.726;9.370;2024-03-08T06:32:39;98395.44;;;0.83;100.00
78741;BME280;68062;48.726;9.370;2024-03-08T06:35:09;98398.44;;;0.99;100.00
78741;BME280;68062;48.726;9.370;2024-03-08T06:37:38;98402.38;;;1.18;100.00
78741;BME280;68062;48.726;9.370;2024-03-08T06:40:08;98400.31;;;1.35;100.00
78741;BME280;68062;48.726;9.370;2024-03-08T06:42:41;98404.97;;;1.50;100.00
78741;BME280;68062;48.726;9.370;2024-03-08T06:45:09;98403.69;;;1.65;100.00
78741;BME280;68062;48.726;9.370;2024-03-08T06:47:39;98393.97;;;1.80;100.00
78741;BME280;68062;48.726;9.370;2024-03-08T06:50:09;98401.94;;;1.94;100.00
78741;BME280;68062;48.726;9.370;2024-03-08T06:52:38;98397.13;;;2.03;100.00
78741;BME280;68062;48.726;9.370;2024-03-08T06:55:08;98395.63;;;2.10;100.00
78741;BME280;68062;48.726;9.370;2024-03-08T06:57:39;98390.88;;;2.24;100.00
78741;BME280;68062;48.726;9.370;2024-03-08T07:00:08;98389.47;;;2.34;100.00
78741;BME280;68062;48.726;9.370;2024-03-08T07:02:38;98388.03;;;2.45;100.00
78741;BME280;68062;48.726;9.370;2024-03-08T07:05:07;98392.47;;;2.54;100.00
78741;BME280;68062;48.726;9.370;2024-03-08T07:07:37;98397.69;;;2.60;99.62
78741;BME280;68062;48.726;9.370;2024-03-08T07:10:09;98396.13;;;2.65;99.62
78741;BME280;68062;48.726;9.370;2024-03-08T07:12:41;98390.47;;;2.77;98.54
78741;BME280;68062;48.726;9.370;2024-03-08T07:15:09;98387.38;;;2.89;97.24
78741;BME280;68062;48.726;9.370;2024-03-08T07:17:40;98378.03;;;2.90;96.03
78741;BME280;68062;48.726;9.370;2024-03-08T07:20:11;98373.22;;;3.01;95.26
78741;BME280;68062;48.726;9.370;2024-03-08T07:22:40;98375.91;;;3.08;94.37
78741;BME280;68062;48.726;9.370;2024-03-08T07:25:12;98375.28;;;3.17;93.75
78741;BME280;68062;48.726;9.370;2024-03-08T07:27:49;98369.38;;;3.20;93.17
78741;BME280;68062;48.726;9.370;2024-03-08T07:30:18;98364.69;;;3.37;91.83
78741;BME280;68062;48.726;9.370;2024-03-08T07:33:00;98373.16;;;3.37;91.18
78741;BME280;68062;48.726;9.370;2024-03-08T07:35:29;98366.41;;;3.39;90.69
78741;BME280;68062;48.726;9.370;2024-03-08T07:37:58;98365.75;;;3.48;90.15
78741;BME280;68062;48.726;9.370;2024-03-08T07:40:28;98372.56;;;3.49;90.43
78741;BME280;68062;48.726;9.370;2024-03-08T07:42:56;98372.69;;;3.57;90.35
78741;BME280;68062;48.726;9.370;2024-03-08T07:45:25;98370.34;;;3.66;89.11
78741;BME280;68062;48.726;9.370;2024-03-08T07:47:53;98368.66;;;3.67;89.39
78741;BME280;68062;48.726;9.370;2024-03-08T07:50:22;98367.72;;;3.63;88.71
78741;BME280;68062;48.726;9.370;2024-03-08T07:52:50;98364.34;;;3.64;89.07
78741;BME280;68062;48.726;9.370;2024-03-08T07:55:19;98372.75;;;3.60;89.19
78741;BME280;68062;48.726;9.370;2024-03-08T07:57:48;98362.63;;;3.63;89.69
78741;BME280;68062;48.726;9.370;2024-03-08T08:00:17;98365.34;;;3.71;89.24
78741;BME280;68062;48.726;9.370;2024-03-08T08:02:45;98360.31;;;3.74;87.80
78741;BME280;68062;48.726;9.370;2024-03-08T08:05:13;98362.94;;;3.77;88.80
78741;BME280;68062;48.726;9.370;2024-03-08T08:07:44;98362.97;;;3.80;87.67
78741;BME280;68062;48.726;9.370;2024-03-08T08:10:16;98362.09;;;3.78;88.26
78741;BME280;68062;48.726;9.370;2024-03-08T08:12:45;98356.19;;;3.79;88.15
78741;BME280;68062;48.726;9.370;2024-03-08T08:15:15;98359.72;;;3.89;88.13
78741;BME280;68062;48.726;9.370;2024-03-08T08:17:43;98361.63;;;4.01;88.28
78741;BME280;68062;48.726;9.370;2024-03-08T08:20:12;98352.56;;;4.16;87.34
78741;BME280;68062;48.726;9.370;2024-03-08T08:22:40;98356.81;;;4.15;87.62
78741;BME280;68062;48.726;9.370;2024-03-08T08:25:10;98349.22;;;4.20;86.09
78741;BME280;68062;48.726;9.370;2024-03-08T08:27:41;98351.97;;;4.32;85.91
78741;BME280;68062;48.726;9.370;2024-03-08T08:30:12;98338.50;;;4.38;85.20
78741;BME280;68062;48.726;9.370;2024-03-08T08:32:42;98326.75;;;4.46;84.38
78741;BME280;68062;48.726;9.370;2024-03-08T08:35:11;98336.91;;;4.45;83.68
78741;BME280;68062;48.726;9.370;2024-03-08T08:37:40;98339.50;;;4.48;84.08
78741;BME280;68062;48.726;9.370;2024-03-08T08:40:09;98341.31;;;4.53;84.27
78741;BME280;68062;48.726;9.370;2024-03-08T08:42:42;98335.34;;;4.51;83.97
78741;BME280;68062;48.726;9.370;2024-03-08T08:45:11;98341.13;;;4.42;83.64
78741;BME280;68062;48.726;9.370;2024-03-08T08:47:45;98328.97;;;4.24;83.50
78741;BME280;68062;48.726;9.370;2024-03-08T08:50:13;98320.75;;;4.42;83.54
78741;BME280;68062;48.726;9.370;2024-03-08T08:52:43;98298.75;;;4.46;83.78
78741;BME280;68062;48.726;9.370;2024-03-08T08:55:11;98325.59;;;4.84;82.24
78741;BME280;68062;48.726;9.370;2024-03-08T08:57:42;98289.00;;;4.77;81.86
78741;BME280;68062;48.726;9.370;2024-03-08T09:00:11;98330.16;;;5.07;80.82
78741;BME280;68062;48.726;9.370;2024-03-08T09:02:42;98279.63;;;4.75;80.15
78741;BME280;68062;48.726;9.370;2024-03-08T09:05:15;98320.09;;;5.16;79.96
78741;BME280;68062;48.726;9.370;2024-03-08T09:07:48;98317.38;;;5.04;80.19
78741;BME280;68062;48.726;9.370;2024-03-08T09:10:16;98311.69;;;5.22;79.49
78741;BME280;68062;48.726;9.370;2024-03-08T09:12:45;98306.47;;;5.14;78.66
78741;BME280;68062;48.726;9.370;2024-03-08T09:15:14;98315.13;;;5.28;79.19
78741;BME280;68062;48.726;9.370;2024-03-08T09:17:47;98314.38;;;5.36;78.22
78741;BME280;68062;48.726;9.370;2024-03-08T09:20:17;98318.56;;;5.30;78.70
78741;BME280;68062;48.726;9.370;2024-03-08T09:22:45;98316.81;;;5.26;78.38
78741;BME280;68062;48.726;9.370;2024-03-08T09:25:13;98307.50;;;5.27;78.75
78741;BME280;68062;48.726;9.370;2024-03-08T09:27:41;98313.53;;;5.38;78.04
78741;BME280;68062;48.726;9.370;2024-03-08T09:30:10;98314.53;;;5.50;76.95
78741;BME280;68062;48.726;9.370;2024-03-08T09:32:42;98301.00;;;5.57;77.38
78741;BME280;68062;48.726;9.370;2024-03-08T09:35:10;98300.38;;;5.78;76.31
78741;BME280;68062;48.726;9.370;2024-03-08T09:37:40;98293.66;;;5.86;75.19
78741;BME280;68062;48.726;9.370;2024-03-08T09:40:09;98298.94;;;6.02;75.43
78741;BME280;68062;48.726;9.370;2024-03-08T09:42:37;98292.06;;;5.99;74.17
78741;BME280;68062;48.726;9.370;2024-03-08T09:45:08;98286.81;;;5.84;74.82
78741;BME280;68062;48.726;9.370;2024-03-08T09:47:39;98291.16;;;5.93;74.78
78741;BME280;68062;48.726;9.370;2024-03-08T09:50:09;98284.41;;;5.98;73.30
78741;BME280;68062;48.726;9.370;2024-03-08T09:52:41;98292.06;;;5.99;73.64
78741;BME280;68062;48.726;9.370;2024-03-08T09:55:10;98295.34;;;5.86;74.33
78741;BME280;68062;48.726;9.370;2024-03-08T09:57:39;98297.03;;;5.84;74.95
78741;BME280;68062;48.726;9.370;2024-03-08T10:00:12;98284.47;;;6.01;74.51
78741;BME280;68062;48.726;9.370;2024-03-08T10:02:51;98274.34;;;6.10;73.76
78741;BME280;68062;48.726;9.370;2024-03-08T10:05:21;98271.91;;;6.27;72.69
78741;BME280;68062;48.726;9.370;2024-03-08T10:07:51;98272.75;;;6.26;71.99
78741;BME280;68062;48.726;9.370;2024-03-08T10:10:20;98272.09;;;6.55;72.10
78741;BME280;68062;48.726;9.370;2024-03-08T10:12:48;98271.38;;;6.78;70.75
78741;BME280;68062;48.726;9.370;2024-03-08T10:15:16;98272.31;;;6.97;69.37
78741;BME280;68062;48.726;9.370;2024-03-08T10:17:45;98273.97;;;6.86;68.71
78741;BME280;68062;48.726;9.370;2024-03-08T10:20:14;98269.66;;;6.78;69.44
78741;BME280;68062;48.726;9.370;2024-03-08T10:22:42;98268.84;;;6.81;69.40
78741;BME280;68062;48.726;9.370;2024-03-08T10:25:29;98261.22;;;6.95;69.42
78741;BME280;68062;48.726;9.370;2024-03-08T10:27:57;98262.13;;;7.02;68.97
78741;BME280;68062;48.726;9.370;2024-03-08T10:30:25;98257.84;;;6.99;68.15
78741;BME280;68062;48.726;9.370;2024-03-08T10:32:54;98249.34;;;7.10;68.85
78741;BME280;68062;48.726;9.370;2024-03-08T10:35:22;98257.13;;;7.30;67.96
78741;BME280;68062;48.726;9.370;2024-03-08T10:37:51;98241.75;;;7.24;67.30
78741;BME280;68062;48.726;9.370;2024-03-08T10:40:26;98238.28;;;7.09;67.77
78741;BME280;68062;48.726;9.370;2024-03-08T10:42:57;98235.84;;;7.49;65.58
78741;BME280;68062;48.726;9.370;2024-03-08T10:45:35;98235.03;;;7.69;65.71
78741;BME280;68062;48.726;9.370;2024-03-08T10:48:26;98227.34;;;7.68;64.45
78741;BME280;68062;48.726;9.370;2024-03-08T10:51:04;98234.19;;;7.78;64.64
78741;BME280;68062;48.726;9.370;2024-03-08T10:53:34;98237.53;;;7.40;64.71
78741;BME280;68062;48.726;9.370;2024-03-08T10:56:06;98231.59;;;7.62;65.59
78741;BME280;68062;48.726;9.370;2024-03-08T10:58:37;98241.88;;;7.73;64.08
78741;BME280;68062;48.726;9.370;2024-03-08T11:01:06;98240.19;;;7.94;64.72
78741;BME280;68062;48.726;9.370;2024-03-08T11:03:47;98235.88;;;8.05;63.43
78741;BME280;68062;48.726;9.370;2024-03-08T11:06:23;98218.78;;;8.26;62.68
78741;BME280;68062;48.726;9.370;2024-03-08T11:08:57;98240.19;;;7.91;63.24
78741;BME280;68062;48.726;9.370;2024-03-08T11:11:26;98234.19;;;8.12;63.08
78741;BME280;68062;48.726;9.370;2024-03-08T11:14:02;98219.53;;;8.90;60.41
78741;BME280;68062;48.726;9.370;2024-03-08T11:16:38;98216.88;;;9.12;59.69
78741;BME280;68062;48.726;9.370;2024-03-08T11:19:24;98202.94;;;9.52;58.95
78741;BME280;68062;48.726;9.370;2024-03-08T11:22:00;98203.66;;;9.77;58.86
78741;BME280;68062;48.726;9.370;2024-03-08T11:24:36;98199.50;;;10.59;56.81
78741;BME280;68062;48.726;9.370;2024-03-08T11:27:06;98200.09;;;10.81;55.07
78741;BME280;68062;48.726;9.370;2024-03-08T11:29:38;98196.03;;;11.32;53.56
78741;BME280;68062;48.726;9.370;2024-03-08T11:32:11;98194.06;;;11.50;52.87
78741;BME280;68062;48.726;9.370;2024-03-08T11:34:41;98168.16;;;10.98;52.94
78741;BME280;68062;48.726;9.370;2024-03-08T11:37:14;98195.34;;;10.47;54.25
78741;BME280;68062;48.726;9.370;2024-03-08T11:39:50;98182.66;;;10.25;55.09
78741;BME280;68062;48.726;9.370;2024-03-08T11:42:19;98180.50;;;10.69;54.15
78741;BME280;68062;48.726;9.370;2024-03-08T11:44:50;98160.25;;;11.12;52.24
78741;BME280;68062;48.726;9.370;2024-03-08T11:47:19;98170.97;;;11.43;52.34
78741;BME280;68062;48.726;9.370;2024-03-08T11:49:47;98164.59;;;11.68;51.42
78741;BME280;68062;48.726;9.370;2024-03-08T11:52:17;98164.25;;;11.89;50.67
78741;BME280;68062;48.726;9.370;2024-03-08T11:54:52;98170.03;;;12.04;50.20
78741;BME280;68062;48.726;9.370;2024-03-08T11:57:22;98155.69;;;11.89;50.67
78741;BME280;68062;48.726;9.370;2024-03-08T11:59:52;98129.31;;;11.73;51.52
78741;BME280;68062;48.726;9.370;2024-03-08T12:02:23;98150.38;;;11.95;50.07
78741;BME280;68062;48.726;9.370;2024-03-08T12:04:56;98148.28;;;12.19;50.93
78741;BME280;68062;48.726;9.370;2024-03-08T12:07:24;98132.34;;;12.44;49.60
78741;BME280;68062;48.726;9.370;2024-03-08T12:10:14;98127.94;;;12.03;50.72
78741;BME280;68062;48.726;9.370;2024-03-08T12:12:44;98126.84;;;12.62;49.50
78741;BME280;68062;48.726;9.370;2024-03-08T12:15:15;98130.75;;;13.21;55.61
78741;BME280;68062;48.726;9.370;2024-03-08T12:17:42;98115.00;;;13.70;49.40
78741;BME280;68062;48.726;9.370;2024-03-08T12:20:15;98115.38;;;14.54;54.57
78741;BME280;68062;48.726;9.370;2024-03-08T12:22:44;98116.34;;;14.81;47.01
78741;BME280;68062;48.726;9.370;2024-03-08T12:25:15;98113.69;;;14.53;45.71
78741;BME280;68062;48.726;9.370;2024-03-08T12:27:43;98101.63;;;14.20;45.50
78741;BME280;68062;48.726;9.370;2024-03-08T12:30:22;98096.38;;;13.92;45.47
78741;BME280;68062;48.726;9.370;2024-03-08T12:32:55;98102.38;;;14.55;44.88
78741;BME280;68062;48.726;9.370;2024-03-08T12:35:25;98104.31;;;15.09;44.37
78741;BME280;68062;48.726;9.370;2024-03-08T12:37:55;98098.94;;;15.15;44.21
78741;BME280;68062;48.726;9.370;2024-03-08T12:40:30;98090.47;;;13.87;46.02
78741;BME280;68062;48.726;9.370;2024-03-08T12:42:59;98073.13;;;13.90;46.59
78741;BME280;68062;48.726;9.370;2024-03-08T12:45:28;98085.94;;;14.26;46.16
78741;BME280;68062;48.726;9.370;2024-03-08T12:47:56;98072.19;;;14.26;44.78
78741;BME280;68062;48.726;9.370;2024-03-08T12:50:26;98078.22;;;13.93;45.90
78741;BME280;68062;48.726;9.370;2024-03-08T12:52:53;98073.69;;;14.63;45.29
78741;BME280;68062;48.726;9.370;2024-03-08T12:55:22;98069.03;;;15.33;43.99
78741;BME280;68062;48.726;9.370;2024-03-08T12:57:50;98054.16;;;14.83;43.84
78741;BME280;68062;48.726;9.370;2024-03-08T13:00:20;98062.59;;;14.90;44.13
78741;BME280;68062;48.726;9.370;2024-03-08T13:02:51;98056.50;;;15.19;43.67
78741;BME280;68062;48.726;9.370;2024-03-08T13:05:20;98042.47;;;15.79;42.39
78741;BME280;68062;48.726;9.370;2024-03-08T13:07:48;98040.13;;;15.71;42.28
78741;BME280;68062;48.726;9.370;2024-03-08T13:10:16;98042.09;;;15.64;41.96
78741;BME280;68062;48.726;9.370;2024-03-08T13:12:47;98041.31;;;14.80;43.28
78741;BME280;68062;48.726;9.370;2024-03-08T13:15:20;98031.53;;;14.90;43.92